Time;durP1;ratioP1;P1;durP2;ratioP2;P2;SDS_P1;SDS_P2;PMS_P1;PMS_P2;Temp;Humidity;BMP_temperature;BMP_pressure;BME280_temperature;BME280_humidity;BME280_pressure;Samples;Min_cycle;Max_cycle;Signal;HPM_P1;HPM_P2
2021/12/16 00:04:03;;;;;;;;;41.00;37.00;;;;;9.86;76.61;102870.84;5037280;28;45236;-76
2021/12/16 00:09:12;;;;;;;;;43.00;36.50;;;;;9.77;76.37;102857.28;5037087;28;45464;-76
2021/12/16 00:35:41;;;;;;;;;44.25;38.00;;;;;9.84;76.13;102860.25;5057253;28;45453;-74
2021/12/16 00:38:08;;;;;;;;;46.50;37.25;;;;;9.88;75.91;102867.47;5056826;28;47822;-75
2021/12/16 00:40:38;;;;;;;;;40.25;33.25;;;;;9.85;76.43;102872.56;5056756;28;45424;-76
2021/12/16 00:43:18;;;;;;;;;42.50;38.50;;;;;9.88;76.63;102872.72;5038585;28;45264;-76
2021/12/16 00:46:44;;;;;;;;;39.75;35.50;;;;;9.78;76.36;102857.38;5058213;28;45313;-75
2021/12/16 00:54:11;;;;;;;;;32.00;29.00;;;;;9.86;76.41;102849.78;5059913;28;45239;-75
2021/12/16 00:56:43;;;;;;;;;32.75;30.25;;;;;9.79;75.93;102831.94;5060100;28;45441;-75
2021/12/16 00:59:11;;;;;;;;;43.25;34.50;;;;;9.89;75.92;102850.84;5059225;28;46018;-75
2021/12/16 01:01:54;;;;;;;;;30.50;27.00;;;;;9.64;76.07;102812.00;5041664;28;45349;-74
2021/12/16 01:52:36;;;;;;;;;37.50;36.00;;;;;9.97;75.96;102864.34;5058965;28;45425;-76
2021/12/16 01:55:08;;;;;;;;;31.00;28.75;;;;;9.96;75.66;102863.44;5058517;28;45368;-75
2021/12/16 01:57:46;;;;;;;;;34.25;32.25;;;;;9.75;75.85;102830.00;5058510;28;45417;-76
2021/12/16 02:00:30;;;;;;;;;27.50;25.00;;;;;9.95;74.88;102863.34;5059092;28;45453;-76
2021/12/16 02:03:03;;;;;;;;;33.75;30.75;;;;;9.95;75.07;102860.72;5058754;28;45395;-75
2021/12/16 02:10:42;;;;;;;;;32.75;31.00;;;;;10.02;74.31;102868.06;5058876;28;45350;-76
2021/12/16 02:30:36;;;;;;;;;45.00;38.50;;;;;10.06;75.38;102870.00;5058693;28;45525;-75
2021/12/16 02:32:42;;;;;;;;;54.75;44.75;;;;;10.14;75.68;102876.47;5056295;28;45410;-75
2021/12/16 02:37:52;;;;;;;;;38.75;35.00;;;;;10.16;75.29;102869.56;5058446;28;45495;-76
2021/12/16 02:40:19;;;;;;;;;52.50;42.00;;;;;10.17;75.25;102878.38;5058543;28;45283;-76
2021/12/16 02:42:58;;;;;;;;;46.50;39.25;;;;;10.16;75.57;102872.22;5058290;28;45317;-75
2021/12/16 02:50:46;;;;;;;;;46.75;40.75;;;;;10.18;75.01;102877.53;5057901;28;45449;-74
2021/12/16 02:53:11;;;;;;;;;45.75;39.50;;;;;10.21;75.39;102882.91;5058436;28;45258;-75
2021/12/16 02:55:37;;;;;;;;;41.00;36.75;;;;;10.21;75.44;102883.81;5057564;28;45374;-76
2021/12/16 02:58:03;;;;;;;;;50.00;42.50;;;;;10.20;75.36;102875.84;5057641;28;45403;-73
2021/12/16 03:00:33;;;;;;;;;45.00;39.50;;;;;10.18;75.05;102874.91;5037987;28;45367;-76
2021/12/16 03:02:59;;;;;;;;;48.75;42.00;;;;;10.08;74.94;102855.16;5051060;28;45215;-75
2021/12/16 03:05:24;;;;;;;;;46.25;39.75;;;;;10.10;75.05;102855.22;5057869;28;45564;-76
2021/12/16 03:07:52;;;;;;;;;52.75;41.00;;;;;10.26;74.87;102873.53;5057542;28;45480;-76
2021/12/16 03:12:57;;;;;;;;;49.25;40.00;;;;;10.15;75.02;102859.88;5057660;28;45393;-76
2021/12/16 03:15:51;;;;;;;;;57.25;43.75;;;;;10.22;75.75;102871.59;5057643;28;46583;-76
2021/12/16 03:21:01;;;;;;;;;47.75;39.50;;;;;10.22;75.84;102888.28;5057701;28;45215;-76
2021/12/16 03:29:01;;;;;;;;;54.50;43.50;;;;;10.11;75.26;102879.00;5057459;28;45448;-75
2021/12/16 03:39:44;;;;;;;;;39.00;35.25;;;;;10.17;75.42;102889.81;5057438;28;45393;-76
2021/12/16 03:42:11;;;;;;;;;44.50;40.00;;;;;10.05;75.92;102865.59;5057186;28;45539;-76
2021/12/16 03:45:00;;;;;;;;;47.75;40.25;;;;;10.10;75.58;102866.66;5057256;28;45405;-76
2021/12/16 03:47:37;;;;;;;;;48.00;40.50;;;;;10.16;75.55;102884.47;5056808;28;47029;-76
2021/12/16 03:50:07;;;;;;;;;54.50;42.00;;;;;10.15;75.91;102873.03;5056834;28;45436;-76
2021/12/16 03:52:33;;;;;;;;;54.00;44.25;;;;;10.14;75.76;102876.47;5056923;28;45260;-75
2021/12/16 03:54:59;;;;;;;;;46.50;41.00;;;;;10.18;75.43;102886.34;5057308;28;45215;-75
2021/12/16 03:57:27;;;;;;;;;59.25;47.25;;;;;10.13;76.25;102872.06;5057043;28;46067;-74
2021/12/16 03:59:53;;;;;;;;;52.75;42.50;;;;;10.13;75.74;102876.41;5057331;28;45458;-76
2021/12/16 04:02:31;;;;;;;;;57.00;45.75;;;;;10.03;76.02;102856.69;5056998;28;45440;-75
2021/12/16 04:04:59;;;;;;;;;56.75;46.25;;;;;10.15;76.07;102869.50;5057172;28;45271;-74
2021/12/16 04:07:29;;;;;;;;;46.25;39.00;;;;;10.15;76.24;102865.16;5056772;28;46284;-75
2021/12/16 04:09:55;;;;;;;;;54.25;43.75;;;;;10.18;75.99;102888.97;5038796;28;45335;-76
2021/12/16 04:12:23;;;;;;;;;52.50;44.25;;;;;10.10;75.77;102866.66;5057262;28;45302;-76
2021/12/16 04:14:52;;;;;;;;;54.75;41.75;;;;;10.19;76.15;102879.34;5057451;28;45358;-76
2021/12/16 04:17:21;;;;;;;;;55.75;45.75;;;;;10.10;76.15;102865.75;5056964;28;46554;-76
2021/12/16 04:19:48;;;;;;;;;57.50;45.50;;;;;10.03;75.99;102859.31;5057119;28;45405;-75
2021/12/16 04:22:28;;;;;;;;;49.50;41.00;;;;;10.12;75.52;102877.25;5060291;28;45402;-75
2021/12/16 04:24:55;;;;;;;;;54.50;42.75;;;;;10.16;76.06;102873.94;5060542;28;45326;-75
2021/12/16 04:27:21;;;;;;;;;48.00;39.75;;;;;10.23;76.29;102897.09;5060075;28;46708;-74
2021/12/16 04:29:48;;;;;;;;;46.25;39.00;;;;;10.10;75.83;102869.28;5060015;28;45309;-76
2021/12/16 04:32:14;;;;;;;;;48.25;39.75;;;;;10.11;75.87;102871.09;5060293;28;45397;-76
2021/12/16 04:34:39;;;;;;;;;45.50;39.75;;;;;10.19;76.08;102881.97;5060230;28;45398;-76
2021/12/16 04:37:06;;;;;;;;;46.75;41.75;;;;;10.23;75.97;102894.44;5059979;28;45414;-76
2021/12/16 04:39:34;;;;;;;;;45.75;39.00;;;;;10.15;76.21;102886.22;5060103;28;45592;-75
2021/12/16 04:42:00;;;;;;;;;55.50;44.50;;;;;10.21;75.23;102904.91;5060368;28;45385;-76
2021/12/16 04:44:27;;;;;;;;;49.50;40.50;;;;;10.04;76.04;102883.91;5060017;28;45407;-75
2021/12/16 04:46:54;;;;;;;;;52.00;44.00;;;;;10.13;75.62;102901.03;5059937;28;46860;-76
2021/12/16 04:49:21;;;;;;;;;50.25;43.25;;;;;10.11;75.81;102889.53;5059767;28;45440;-75
2021/12/16 04:51:51;;;;;;;;;53.25;44.00;;;;;10.14;76.54;102897.56;5059569;28;45420;-75
2021/12/16 04:54:18;;;;;;;;;50.25;41.75;;;;;10.07;76.20;102884.97;5059588;28;45465;-76
2021/12/16 04:56:46;;;;;;;;;46.25;41.00;;;;;10.13;75.72;102890.47;5059691;28;45422;-75
2021/12/16 04:59:14;;;;;;;;;47.75;39.50;;;;;10.20;76.26;102903.09;5059677;28;45211;-75
2021/12/16 05:01:42;;;;;;;;;49.25;39.50;;;;;10.19;76.01;102909.19;5059948;28;45377;-75
2021/12/16 05:04:08;;;;;;;;;42.75;38.25;;;;;10.10;76.07;102889.47;5059640;28;45201;-74
2021/12/16 05:06:34;;;;;;;;;49.25;39.50;;;;;10.21;76.03;102910.16;5059586;28;46458;-75
2021/12/16 05:08:59;;;;;;;;;47.50;38.00;;;;;10.17;75.88;102904.72;5059642;28;45419;-76
2021/12/16 05:11:25;;;;;;;;;50.00;42.00;;;;;10.08;76.03;102889.41;5059901;28;45235;-75
2021/12/16 05:13:51;;;;;;;;;49.25;40.00;;;;;10.21;76.16;102911.91;5059906;28;45299;-76
2021/12/16 05:16:17;;;;;;;;;39.75;35.00;;;;;9.98;75.79;102871.41;5059637;28;46022;-75
2021/12/16 05:18:44;;;;;;;;;47.00;41.00;;;;;10.25;75.92;102914.78;5059388;28;45203;-76
2021/12/16 05:21:38;;;;;;;;;44.75;38.75;;;;;10.27;75.42;102913.09;5059566;28;45338;-76
2021/12/16 05:24:16;;;;;;;;;44.75;38.25;;;;;10.28;75.76;102907.00;5059238;28;45329;-77
2021/12/16 05:26:43;;;;;;;;;46.75;42.00;;;;;10.33;75.84;102920.38;5059371;28;45426;-76
2021/12/16 05:29:09;;;;;;;;;42.50;39.50;;;;;10.33;75.69;102924.72;5058885;28;45425;-76
2021/12/16 05:31:35;;;;;;;;;48.25;41.00;;;;;10.19;75.38;102910.94;5058423;28;45284;-76
2021/12/16 05:34:03;;;;;;;;;54.00;41.75;;;;;10.24;75.62;102909.44;5059670;28;45149;-76
2021/12/16 05:36:28;;;;;;;;;45.25;38.00;;;;;10.30;75.81;102920.22;5059108;28;45773;-76
2021/12/16 05:38:53;;;;;;;;;48.75;42.25;;;;;10.34;75.60;102929.19;5059103;28;45456;-75
2021/12/16 05:41:22;;;;;;;;;51.25;40.75;;;;;10.23;75.83;102913.78;5059236;28;45906;-76
2021/12/16 05:43:48;;;;;;;;;42.25;39.50;;;;;10.26;75.65;102924.47;5059118;28;45413;-76
2021/12/16 05:46:16;;;;;;;;;41.25;37.75;;;;;10.21;75.52;102912.78;5058696;28;46453;-76
2021/12/16 05:48:44;;;;;;;;;47.50;40.75;;;;;10.32;76.24;102942.28;5058924;28;45411;-75
2021/12/16 05:51:14;;;;;;;;;54.75;43.50;;;;;10.31;75.93;102947.47;5059138;28;45932;-76
2021/12/16 05:53:41;;;;;;;;;47.75;42.00;;;;;10.25;75.99;102927.94;5040898;28;45462;-74
2021/12/16 05:56:07;;;;;;;;;49.50;42.75;;;;;10.35;76.25;102946.78;5058586;28;46117;-75
2021/12/16 05:58:33;;;;;;;;;44.50;39.75;;;;;10.31;76.47;102940.47;5058804;28;45484;-75
2021/12/16 06:01:12;;;;;;;;;52.75;41.75;;;;;10.36;75.67;102951.22;5058845;28;45419;-75
2021/12/16 06:03:39;;;;;;;;;53.50;43.25;;;;;10.37;76.53;102946.03;5058613;28;45275;-76
2021/12/16 06:06:05;;;;;;;;;47.00;39.25;;;;;10.35;76.00;102944.16;5058638;28;45350;-76
2021/12/16 06:08:32;;;;;;;;;41.75;36.75;;;;;10.39;75.66;102949.63;5058756;28;45327;-75
2021/12/16 06:13:29;;;;;;;;;50.50;44.50;;;;;10.31;75.29;102948.38;5058723;28;45341;-73
2021/12/16 06:27:00;;;;;;;;;46.75;40.00;;;;;10.36;75.54;102946.84;5058347;28;45805;-75
2021/12/16 06:29:26;;;;;;;;;47.00;40.50;;;;;10.41;75.80;102953.22;5058510;28;45484;-74
2021/12/16 06:31:51;;;;;;;;;46.25;39.00;;;;;10.33;75.93;102938.84;5058334;28;45404;-75
2021/12/16 06:34:17;;;;;;;;;44.75;38.75;;;;;10.40;75.27;102954.03;5058328;28;45449;-74
2021/12/16 06:36:43;;;;;;;;;47.75;42.00;;;;;10.30;76.29;102936.03;5039663;28;46320;-74
2021/12/16 06:39:08;;;;;;;;;46.75;41.00;;;;;10.39;75.80;102957.53;5058314;28;45206;-75
2021/12/16 06:41:36;;;;;;;;;39.00;36.50;;;;;10.40;75.65;102947.88;5058252;28;45339;-75
2021/12/16 06:44:07;;;;;;;;;48.00;38.00;;;;;10.34;76.14;102948.53;5039511;28;45429;-74
2021/12/16 06:46:36;;;;;;;;;43.25;38.00;;;;;10.39;75.82;102956.63;5057630;28;45754;-74
2021/12/16 06:49:03;;;;;;;;;44.25;38.00;;;;;10.37;75.90;102939.84;5057705;28;45485;-75
2021/12/16 06:51:46;;;;;;;;;42.50;38.50;;;;;10.40;75.76;102958.41;5057834;28;45346;-74
2021/12/16 06:54:21;;;;;;;;;39.75;36.00;;;;;10.41;75.98;102960.22;5063121;28;45274;-72
2021/12/16 06:59:37;;;;;;;;;37.25;36.25;;;;;10.44;75.28;102971.81;5024307;28;45487;-70
2021/12/16 07:02:17;;;;;;;;;49.75;38.25;;;;;10.46;75.43;102977.13;5007639;28;45515;-72
2021/12/16 07:04:43;;;;;;;;;48.50;40.50;;;;;10.36;75.90;102956.50;5023154;28;45343;-74
2021/12/16 07:07:11;;;;;;;;;38.25;36.75;;;;;10.44;76.26;102966.53;5022199;28;46286;-72
2021/12/16 07:09:37;;;;;;;;;52.50;40.25;;;;;10.39;75.43;102961.88;5022047;28;45550;-74
2021/12/16 07:12:04;;;;;;;;;41.75;38.00;;;;;10.47;75.01;102976.31;5024086;28;45419;-73
2021/12/16 07:14:37;;;;;;;;;40.25;37.25;;;;;10.44;75.49;102973.53;5023764;28;45290;-75
2021/12/16 07:17:15;;;;;;;;;46.75;39.00;;;;;10.43;75.22;102972.66;5021222;28;45533;-74
2021/12/16 07:19:43;;;;;;;;;37.50;36.75;;;;;10.43;75.64;102972.66;5022389;28;45452;-73
2021/12/16 07:22:12;;;;;;;;;47.50;39.75;;;;;10.38;76.11;102966.25;5024101;28;45474;-73
2021/12/16 07:24:38;;;;;;;;;41.25;35.25;;;;;10.44;75.40;102968.28;5024564;28;45501;-72
2021/12/16 07:27:06;;;;;;;;;46.00;39.50;;;;;10.48;74.99;102979.00;5021243;28;46626;-72
2021/12/16 07:29:32;;;;;;;;;44.50;38.25;;;;;10.44;75.06;102969.19;5022133;28;45372;-71
2021/12/16 07:31:59;;;;;;;;;39.50;38.00;;;;;10.47;75.59;102979.84;5023982;28;45266;-73
2021/12/16 07:34:25;;;;;;;;;40.00;37.25;;;;;10.48;75.56;102981.63;5022653;28;45563;-72
2021/12/16 07:36:51;;;;;;;;;34.75;30.25;;;;;10.41;75.99;102968.13;5047927;28;46408;-73
2021/12/16 07:39:19;;;;;;;;;40.00;37.00;;;;;10.51;76.04;102986.13;5063384;28;45666;-73
2021/12/16 07:41:51;;;;;;;;;50.50;37.50;;;;;10.43;75.83;102967.38;5067153;28;45202;-72
2021/12/16 07:44:16;;;;;;;;;48.75;38.75;;;;;10.52;75.56;102987.97;5064364;28;45453;-74
2021/12/16 07:46:50;;;;;;;;;42.50;37.25;;;;;10.52;75.70;102980.97;5066296;28;45445;-76
2021/12/16 07:49:23;;;;;;;;;46.00;39.75;;;;;10.50;75.29;102977.31;5065026;28;45498;-73
2021/12/16 07:51:49;;;;;;;;;42.00;35.25;;;;;10.55;75.92;102988.09;5065438;28;45326;-76
2021/12/16 07:54:17;;;;;;;;;37.50;34.25;;;;;10.50;75.56;102979.06;5065378;28;45483;-74
2021/12/16 07:56:45;;;;;;;;;49.50;37.50;;;;;10.46;76.00;102972.78;5047519;28;48375;-74
2021/12/16 07:59:10;;;;;;;;;41.75;38.25;;;;;10.57;74.96;102992.56;5059599;28;45583;-78
2021/12/16 08:01:37;;;;;;;;;45.75;38.00;;;;;10.51;75.31;102972.94;5046009;28;45321;-78
2021/12/16 08:04:04;;;;;;;;;39.50;36.75;;;;;10.49;75.71;102975.53;5066132;28;45547;-74
2021/12/16 08:06:31;;;;;;;;;40.50;38.25;;;;;10.61;75.44;102991.00;5063853;28;46391;-73
2021/12/16 08:09:05;;;;;;;;;46.50;40.00;;;;;10.63;75.27;103002.50;5061863;28;45504;-73
2021/12/16 08:11:36;;;;;;;;;41.00;37.50;;;;;10.56;75.29;102980.25;5068964;28;45475;-71
2021/12/16 08:14:03;;;;;;;;;41.50;37.25;;;;;10.55;74.92;102982.81;5065827;28;45278;-74
2021/12/16 08:16:31;;;;;;;;;42.75;34.00;;;;;10.67;75.41;103009.69;5062073;28;46383;-73
2021/12/16 08:18:56;;;;;;;;;43.00;39.00;;;;;10.68;75.02;103010.59;5068072;28;45497;-74
2021/12/16 08:21:28;;;;;;;;;38.75;36.50;;;;;10.65;74.47;103000.81;5064414;28;45481;-74
2021/12/16 08:23:55;;;;;;;;;45.00;38.25;;;;;10.73;74.71;103011.72;5063474;28;45469;-71
2021/12/16 08:26:21;;;;;;;;;38.25;37.00;;;;;10.75;74.77;103004.75;5064113;28;46505;-72
2021/12/16 08:28:47;;;;;;;;;46.75;37.25;;;;;10.65;75.23;102995.56;5065531;28;45474;-73
2021/12/16 08:31:13;;;;;;;;;35.50;32.75;;;;;10.79;74.55;103012.84;5065871;28;45403;-73
2021/12/16 08:33:39;;;;;;;;;46.00;41.00;;;;;10.80;74.50;103016.41;5065399;28;45439;-74
2021/12/16 08:36:06;;;;;;;;;48.00;39.00;;;;;10.84;74.26;103019.22;5064755;28;45369;-74
2021/12/16 08:38:32;;;;;;;;;49.00;40.75;;;;;10.80;74.99;103008.50;5064759;28;45483;-75
2021/12/16 08:41:05;;;;;;;;;52.25;42.00;;;;;10.81;74.76;103003.28;5047599;28;45347;-73
2021/12/16 08:43:31;;;;;;;;;51.75;41.75;;;;;10.93;74.60;103017.81;5064149;28;45287;-74
2021/12/16 08:45:58;;;;;;;;;43.50;39.75;;;;;10.96;74.41;103016.22;5065172;28;46063;-73
2021/12/16 08:48:23;;;;;;;;;54.25;39.75;;;;;10.88;74.38;103003.53;5065666;28;45552;-72
2021/12/16 08:50:51;;;;;;;;;39.75;36.00;;;;;10.99;73.91;103033.91;5063647;28;45723;-74
2021/12/16 08:53:19;;;;;;;;;47.75;38.50;;;;;10.87;73.53;103010.53;5064801;28;45644;-73
2021/12/16 08:55:46;;;;;;;;;50.50;41.25;;;;;11.03;73.58;103027.94;5064920;28;46626;-72
2021/12/16 08:58:12;;;;;;;;;53.75;42.00;;;;;11.02;73.62;103028.75;5065466;28;45362;-73
2021/12/16 09:00:46;;;;;;;;;48.25;41.00;;;;;10.83;74.02;102985.78;5064899;28;45486;-73
2021/12/16 09:03:12;;;;;;;;;50.50;38.50;;;;;11.12;73.29;103033.59;5063942;28;45589;-73
2021/12/16 09:05:38;;;;;;;;;46.25;37.75;;;;;11.14;74.07;103034.53;5065010;28;45514;-75
2021/12/16 09:08:03;;;;;;;;;42.75;37.00;;;;;11.18;72.90;103039.13;5067281;28;45553;-72
2021/12/16 09:10:32;;;;;;;;;39.00;36.50;;;;;11.20;73.13;103032.16;5066761;28;45734;-72
2021/12/16 09:13:04;;;;;;;;;52.00;38.25;;;;;11.22;74.09;103041.03;5068681;28;45543;-74
2021/12/16 09:15:41;;;;;;;;;57.75;47.50;;;;;11.15;73.50;103017.88;5066444;28;46694;-75
2021/12/16 09:18:08;;;;;;;;;52.50;43.00;;;;;11.25;73.83;103030.59;5067556;28;45614;-76
2021/12/16 09:20:34;;;;;;;;;49.75;40.00;;;;;11.33;72.51;103039.75;5050448;28;45500;-74
2021/12/16 09:23:01;;;;;;;;;41.50;37.75;;;;;11.31;73.66;103036.16;5062428;28;45891;-75
2021/12/16 09:25:27;;;;;;;;;46.00;40.00;;;;;11.25;73.00;103017.41;5069369;28;46329;-73
2021/12/16 09:27:53;;;;;;;;;55.75;41.75;;;;;11.36;72.10;103039.00;5067641;28;45268;-76
2021/12/16 09:30:21;;;;;;;;;51.25;42.50;;;;;11.25;72.05;103019.16;5069288;28;45260;-75
2021/12/16 09:32:49;;;;;;;;;50.50;39.50;;;;;11.36;71.71;103039.00;5068300;28;45483;-73
2021/12/16 09:35:14;;;;;;;;;49.00;40.25;;;;;11.37;72.33;103039.03;5067999;28;46582;-72
2021/12/16 09:37:40;;;;;;;;;54.00;42.00;;;;;11.43;72.39;103049.84;5067451;28;45211;-74
2021/12/16 09:40:10;;;;;;;;;51.75;39.25;;;;;11.33;71.82;103034.47;5067696;28;45217;-73
2021/12/16 09:42:37;;;;;;;;;46.50;38.00;;;;;11.47;72.56;103057.91;5066712;28;45386;-77
2021/12/16 09:45:05;;;;;;;;;52.50;41.75;;;;;11.32;71.73;103035.31;5067944;28;46138;-78
2021/12/16 09:47:31;;;;;;;;;43.25;38.50;;;;;11.47;71.65;103069.34;5066288;28;45393;-74
2021/12/16 09:49:57;;;;;;;;;51.75;42.75;;;;;11.31;71.76;103030.88;5067719;28;45244;-75
2021/12/16 09:52:22;;;;;;;;;46.00;38.25;;;;;11.55;71.76;103085.50;5066881;28;45672;-73
2021/12/16 09:54:48;;;;;;;;;47.50;40.75;;;;;11.42;72.06;103058.59;5066424;28;45759;-75
2021/12/16 09:57:16;;;;;;;;;53.75;42.50;;;;;11.59;71.93;103084.78;5067256;28;45470;-72
2021/12/16 09:59:42;;;;;;;;;44.50;39.00;;;;;11.53;71.70;103068.69;5065855;28;45476;-78
2021/12/16 10:02:14;;;;;;;;;53.25;42.00;;;;;11.49;71.21;103057.13;5067339;28;45528;-72
2021/12/16 10:04:40;;;;;;;;;44.75;39.00;;;;;11.54;71.25;103060.84;5065770;28;47403;-72
2021/12/16 10:07:18;;;;;;;;;47.00;39.50;;;;;11.64;71.57;103081.50;5067248;28;45473;-72
2021/12/16 10:09:46;;;;;;;;;50.25;40.25;;;;;11.65;71.29;103082.41;5066620;28;45435;-74
2021/12/16 10:12:16;;;;;;;;;52.25;42.00;;;;;11.71;71.48;103086.16;5066672;28;45419;-74
2021/12/16 10:15:02;;;;;;;;;46.25;39.50;;;;;11.68;70.79;103069.31;5066243;28;46287;-74
2021/12/16 10:17:32;;;;;;;;;41.50;38.25;;;;;11.78;70.86;103082.03;5066354;28;45536;-71
2021/12/16 10:20:13;;;;;;;;;47.50;42.50;;;;;11.62;70.71;103048.84;5067765;28;45303;-73
2021/12/16 10:22:42;;;;;;;;;41.75;37.75;;;;;11.64;71.18;103054.22;5067903;28;45469;-73
2021/12/16 10:25:34;;;;;;;;;49.25;39.75;;;;;11.86;70.44;103085.03;5067114;28;46180;-74
2021/12/16 10:28:00;;;;;;;;;46.25;39.50;;;;;11.85;70.41;103076.22;5065904;28;45287;-74
2021/12/16 10:30:37;;;;;;;;;37.50;35.50;;;;;11.87;70.33;103076.25;5067116;28;45228;-75
2021/12/16 10:33:16;;;;;;;;;49.25;42.00;;;;;11.87;70.16;103066.59;5066820;28;45294;-76
2021/12/16 10:35:47;;;;;;;;;39.25;37.25;;;;;11.93;69.54;103073.88;5065691;28;47271;-75
2021/12/16 10:38:14;;;;;;;;;53.50;41.75;;;;;11.93;69.74;103058.94;5065478;28;45283;-77
2021/12/16 10:40:43;;;;;;;;;49.75;41.50;;;;;12.08;69.90;103082.38;5066561;28;45540;-76
2021/12/16 10:43:24;;;;;;;;;43.75;35.25;;;;;12.06;68.80;103078.78;5065547;28;45375;-75
2021/12/16 10:46:03;;;;;;;;;42.00;36.50;;;;;12.09;69.09;103078.00;5065361;28;46404;-75
2021/12/16 10:48:33;;;;;;;;;46.50;40.00;;;;;12.14;69.87;103077.34;5066420;28;45539;-74
2021/12/16 10:51:13;;;;;;;;;46.50;39.00;;;;;12.16;69.47;103080.03;5065888;28;45921;-74
2021/12/16 10:53:58;;;;;;;;;52.50;41.75;;;;;12.06;68.94;103059.38;5067258;28;45537;-74
2021/12/16 10:56:28;;;;;;;;;54.50;43.25;;;;;12.09;68.94;103062.13;5065725;28;48059;-75
2021/12/16 10:59:09;;;;;;;;;49.00;42.25;;;;;12.22;68.68;103081.19;5046737;28;45746;-74
2021/12/16 11:01:42;;;;;;;;;48.25;41.25;;;;;12.29;69.15;103081.41;5065835;28;45369;-73
2021/12/16 11:04:20;;;;;;;;;52.00;43.00;;;;;12.31;68.62;103075.34;5066506;28;45496;-74
2021/12/16 11:06:50;;;;;;;;;44.25;38.00;;;;;12.33;68.50;103076.28;5066058;28;46766;-77
2021/12/16 11:09:28;;;;;;;;;49.00;43.50;;;;;12.36;68.71;103073.75;5065665;28;45530;-78
2021/12/16 11:12:18;;;;;;;;;53.50;44.75;;;;;12.37;68.37;103078.19;5067277;28;45454;-80
2021/12/16 11:14:48;;;;;;;;;56.25;43.50;;;;;12.22;68.53;103048.56;5067419;28;45331;-77
2021/12/16 11:17:16;;;;;;;;;52.00;41.50;;;;;12.39;68.77;103076.53;5065571;28;46746;-78
2021/12/16 11:19:50;;;;;;;;;57.25;45.25;;;;;12.38;68.38;103080.03;5048107;28;46131;-75
2021/12/16 11:22:20;;;;;;;;;49.25;42.00;;;;;12.40;67.77;103086.25;5065773;28;45230;-75
2021/12/16 11:24:47;;;;;;;;;49.50;41.50;;;;;12.42;67.57;103075.75;5066489;28;45512;-76
2021/12/16 11:27:39;;;;;;;;;49.50;40.50;;;;;12.40;68.27;103072.16;5048233;28;46730;-75
2021/12/16 11:30:18;;;;;;;;;56.00;42.75;;;;;12.38;67.81;103064.16;5060926;28;45611;-75
2021/12/16 11:32:46;;;;;;;;;49.50;41.50;;;;;12.41;67.61;103066.00;5065506;28;45532;-79
2021/12/16 11:35:35;;;;;;;;;55.50;44.50;;;;;12.43;67.57;103061.69;5065570;28;45435;-76
2021/12/16 11:38:15;;;;;;;;;43.50;38.50;;;;;12.46;67.66;103062.69;5064720;28;46206;-78
2021/12/16 11:40:55;;;;;;;;;49.75;42.50;;;;;12.56;68.12;103074.50;5066240;28;45389;-77
2021/12/16 11:43:35;;;;;;;;;53.25;43.00;;;;;12.59;67.80;103065.78;5063444;28;45528;-78
2021/12/16 11:46:02;;;;;;;;;46.50;41.25;;;;;12.61;67.89;103070.28;5067694;28;45458;-77
2021/12/16 11:48:40;;;;;;;;;51.00;43.00;;;;;12.51;67.96;103053.19;5067865;28;46089;-78
2021/12/16 11:51:10;;;;;;;;;45.00;38.50;;;;;12.62;67.53;103063.25;5065055;28;45504;-76
2021/12/16 11:54:01;;;;;;;;;54.00;43.25;;;;;12.51;67.62;103063.75;5044559;28;45438;-78
2021/12/16 11:56:39;;;;;;;;;49.25;42.75;;;;;12.44;67.23;103045.88;5003496;28;45402;-74
2021/12/16 11:59:05;;;;;;;;;56.75;42.50;;;;;12.49;67.40;103048.69;4994581;28;46453;-74
2021/12/16 12:01:32;;;;;;;;;49.25;39.75;;;;;12.51;67.29;103057.56;4988768;28;45766;-74
2021/12/16 12:04:05;;;;;;;;;49.75;41.25;;;;;12.60;67.51;103063.19;4985048;28;45419;-74
2021/12/16 12:06:32;;;;;;;;;42.50;37.00;;;;;12.52;67.14;103049.69;5001459;28;45288;-74
2021/12/16 12:09:00;;;;;;;;;45.75;39.00;;;;;12.47;67.25;103040.72;4990350;28;46188;-75
2021/12/16 12:11:40;;;;;;;;;33.00;31.00;;;;;12.58;66.56;103064.00;5006337;28;45500;-74
2021/12/16 12:14:17;;;;;;;;;41.00;35.75;;;;;12.38;66.86;103026.25;5001985;28;45483;-77
2021/12/16 12:16:45;;;;;;;;;44.50;38.50;;;;;12.60;66.99;103063.19;5006203;28;45385;-77
2021/12/16 12:19:20;;;;;;;;;45.75;38.00;;;;;12.58;66.95;103064.91;4984938;28;46486;-78
2021/12/16 12:22:01;;;;;;;;;37.00;35.00;;;;;12.58;66.61;103053.41;4999125;28;45544;-77
2021/12/16 12:24:33;;;;;;;;;42.25;36.75;;;;;12.53;66.67;103046.19;5002620;28;45506;-75
2021/12/16 12:27:09;;;;;;;;;43.75;35.75;;;;;12.55;66.50;103049.78;5002399;28;45459;-78
2021/12/16 12:29:38;;;;;;;;;38.50;34.00;;;;;12.64;66.22;103050.97;5004410;28;47879;-75
2021/12/16 12:32:08;;;;;;;;;35.00;34.00;;;;;12.62;66.02;103035.06;5004700;28;45404;-75
2021/12/16 12:34:36;;;;;;;;;35.00;32.00;;;;;12.64;65.92;103033.34;5047795;28;45415;-74
2021/12/16 12:37:10;;;;;;;;;34.50;29.75;;;;;12.70;65.90;103038.88;5066858;28;45231;-76
2021/12/16 12:39:39;;;;;;;;;41.00;37.00;;;;;12.73;66.05;103033.69;5064165;28;46059;-76
2021/12/16 12:42:07;;;;;;;;;42.75;36.25;;;;;12.79;64.93;103040.94;5067326;28;45464;-75
2021/12/16 12:44:33;;;;;;;;;38.25;35.00;;;;;12.75;65.48;103037.31;5073460;28;45513;-77
2021/12/16 12:47:04;;;;;;;;;38.50;33.50;;;;;12.80;65.50;103046.28;5071415;28;45557;-75
2021/12/16 12:49:30;;;;;;;;;32.75;30.25;;;;;12.80;65.81;103040.09;5066458;28;45538;-75
2021/12/16 12:52:16;;;;;;;;;46.75;34.75;;;;;12.78;65.49;103039.16;5069083;28;45478;-75
2021/12/16 12:54:45;;;;;;;;;40.25;36.50;;;;;12.77;65.18;103032.06;5048169;28;45453;-75
2021/12/16 12:57:32;;;;;;;;;42.25;34.00;;;;;12.79;65.70;103033.91;5067870;28;45384;-76
2021/12/16 12:59:59;;;;;;;;;43.75;37.25;;;;;12.83;65.48;103037.56;5070944;28;45456;-76
2021/12/16 13:02:33;;;;;;;;;46.50;35.75;;;;;12.70;66.27;103016.81;5070528;28;45570;-75
2021/12/16 13:05:03;;;;;;;;;39.50;34.25;;;;;12.81;65.79;103029.56;5070601;28;45490;-77
2021/12/16 13:07:34;;;;;;;;;31.50;31.50;;;;;12.88;65.45;103035.97;5048127;28;45660;-76
2021/12/16 13:10:09;;;;;;;;;44.00;37.75;;;;;12.82;65.53;103019.88;5066972;28;46155;-77
2021/12/16 13:12:53;;;;;;;;;44.25;36.75;;;;;12.88;65.83;103030.69;5068295;28;45653;-76
2021/12/16 13:15:28;;;;;;;;;46.50;38.75;;;;;12.92;65.40;103034.31;5068730;28;45361;-77
2021/12/16 13:26:42;;;;;;;;;40.00;35.75;;;;;12.87;65.18;103012.13;5066138;28;45514;-74
2021/12/16 13:29:30;;;;;;;;;41.25;35.25;;;;;12.91;64.56;103020.19;5064610;28;46071;-75
2021/12/16 13:32:13;;;;;;;;;39.00;28.00;;;;;12.91;64.85;103021.94;5064097;28;46211;-72
2021/12/16 13:37:43;;;;;;;;;36.25;33.50;;;;;12.86;65.15;103002.41;5068284;28;45222;-75
2021/12/16 13:40:20;;;;;;;;;42.00;36.25;;;;;12.81;65.14;102996.94;5047662;28;45390;-73
2021/12/16 13:42:51;;;;;;;;;35.75;35.00;;;;;12.80;64.77;102990.75;5066835;28;46491;-72
2021/12/16 13:45:42;;;;;;;;;38.00;32.50;;;;;12.90;65.44;103017.50;5065965;28;45545;-76
2021/12/16 14:04:52;;;;;;;;;35.50;31.50;;;;;12.68;65.39;103006.19;5066999;28;45744;-75
2021/12/16 14:07:51;;;;;;;;;31.00;26.25;;;;;12.67;65.51;103012.34;5073825;28;45420;-76
2021/12/16 14:10:20;;;;;;;;;36.25;31.75;;;;;12.62;64.96;103002.44;5078587;28;45319;-78
2021/12/16 14:15:56;;;;;;;;;33.00;31.00;;;;;12.68;66.05;103011.50;5058125;28;45284;-77
2021/12/16 14:23:02;;;;;;;;;33.50;28.00;;;;;12.69;65.28;103013.28;5056176;28;45874;-77
2021/12/16 14:26:42;;;;;;;;;36.25;31.25;;;;;12.63;65.83;103015.69;5058419;28;46095;-77
2021/12/16 14:37:34;;;;;;;;;47.00;41.00;;;;;12.54;66.40;103020.66;5035562;28;45443;-77
2021/12/16 14:40:34;;;;;;;;;37.75;33.75;;;;;12.43;66.21;102993.84;5006837;28;45765;-76